sensor_id;sensor_type;location;lat;lon;timestamp;temperature;humidity
31443;SHT31;18065;55.876;9.830;2024-01-15T00:00:07;21.73;47.30
31443;SHT31;18065;55.876;9.830;2024-01-15T00:02:39;21.73;47.29
31443;SHT31;18065;55.876;9.830;2024-01-15T00:05:08;21.74;47.30
31443;SHT31;18065;55.876;9.830;2024-01-15T00:07:37;21.74;47.32
31443;SHT31;18065;55.876;9.830;2024-01-15T00:10:09;21.74;47.33
31443;SHT31;18065;55.876;9.830;2024-01-15T00:12:37;21.73;47.31
31443;SHT31;18065;55.876;9.830;2024-01-15T00:15:07;21.70;47.35
31443;SHT31;18065;55.876;9.830;2024-01-15T00:17:36;21.70;47.36
31443;SHT31;18065;55.876;9.830;2024-01-15T00:20:06;21.71;47.38
31443;SHT31;18065;55.876;9.830;2024-01-15T00:22:35;21.71;47.33
31443;SHT31;18065;55.876;9.830;2024-01-15T00:25:05;21.70;47.38
31443;SHT31;18065;55.876;9.830;2024-01-15T00:27:36;21.71;47.30
31443;SHT31;18065;55.876;9.830;2024-01-15T00:30:06;21.66;47.29
31443;SHT31;18065;55.876;9.830;2024-01-15T00:32:35;21.70;47.30
31443;SHT31;18065;55.876;9.830;2024-01-15T00:35:05;21.67;47.34
31443;SHT31;18065;55.876;9.830;2024-01-15T00:37:34;21.70;47.32
31443;SHT31;18065;55.876;9.830;2024-01-15T00:40:03;21.67;47.33
31443;SHT31;18065;55.876;9.830;2024-01-15T00:42:36;21.66;47.32
31443;SHT31;18065;55.876;9.830;2024-01-15T00:45:05;21.66;47.30
31443;SHT31;18065;55.876;9.830;2024-01-15T00:47:34;21.66;47.35
31443;SHT31;18065;55.876;9.830;2024-01-15T00:50:04;21.67;47.28
31443;SHT31;18065;55.876;9.830;2024-01-15T00:52:34;21.67;47.29
31443;SHT31;18065;55.876;9.830;2024-01-15T00:55:03;21.65;47.23
31443;SHT31;18065;55.876;9.830;2024-01-15T00:57:32;21.66;47.28
31443;SHT31;18065;55.876;9.830;2024-01-15T01:00:05;21.65;47.28
31443;SHT31;18065;55.876;9.830;2024-01-15T01:02:34;21.65;47.30
31443;SHT31;18065;55.876;9.830;2024-01-15T01:05:04;21.66;47.29
31443;SHT31;18065;55.876;9.830;2024-01-15T01:07:33;21.66;47.26
31443;SHT31;18065;55.876;9.830;2024-01-15T01:10:02;21.65;47.30
31443;SHT31;18065;55.876;9.830;2024-01-15T01:12:31;21.63;47.25
31443;SHT31;18065;55.876;9.830;2024-01-15T01:15:03;21.62;47.25
31443;SHT31;18065;55.876;9.830;2024-01-15T01:17:32;21.65;47.22
31443;SHT31;18065;55.876;9.830;2024-01-15T01:20:01;21.63;47.24
31443;SHT31;18065;55.876;9.830;2024-01-15T01:22:34;21.63;47.31
31443;SHT31;18065;55.876;9.830;2024-01-15T01:25:03;21.65;47.23
31443;SHT31;18065;55.876;9.830;2024-01-15T01:27:32;21.60;47.32
31443;SHT31;18065;55.876;9.830;2024-01-15T01:30:05;21.60;47.30
31443;SHT31;18065;55.876;9.830;2024-01-15T01:32:34;21.60;47.32
31443;SHT31;18065;55.876;9.830;2024-01-15T01:35:04;21.62;47.25
31443;SHT31;18065;55.876;9.830;2024-01-15T01:37:33;21.63;47.26
31443;SHT31;18065;55.876;9.830;2024-01-15T01:40:02;21.59;47.27
31443;SHT31;18065;55.876;9.830;2024-01-15T01:42:31;21.59;47.31
31443;SHT31;18065;55.876;9.830;2024-01-15T01:45:03;21.59;47.28
31443;SHT31;18065;55.876;9.830;2024-01-15T01:47:32;21.58;47.30
31443;SHT31;18065;55.876;9.830;2024-01-15T01:50:02;21.60;47.27
31443;SHT31;18065;55.876;9.830;2024-01-15T01:52:31;21.59;47.26
31443;SHT31;18065;55.876;9.830;2024-01-15T01:55:01;21.59;47.31
31443;SHT31;18065;55.876;9.830;2024-01-15T01:57:31;21.56;47.25
31443;SHT31;18065;55.876;9.830;2024-01-15T02:00:05;21.56;47.23
31443;SHT31;18065;55.876;9.830;2024-01-15T02:02:35;21.56;47.29
31443;SHT31;18065;55.876;9.830;2024-01-15T02:05:04;21.59;47.22
31443;SHT31;18065;55.876;9.830;2024-01-15T02:07:35;21.58;47.25
31443;SHT31;18065;55.876;9.830;2024-01-15T02:10:04;21.58;47.24
31443;SHT31;18065;55.876;9.830;2024-01-15T02:12:33;21.56;47.31
31443;SHT31;18065;55.876;9.830;2024-01-15T02:15:05;21.55;47.23
31443;SHT31;18065;55.876;9.830;2024-01-15T02:17:34;21.56;47.24
31443;SHT31;18065;55.876;9.830;2024-01-15T02:20:05;21.56;47.21
31443;SHT31;18065;55.876;9.830;2024-01-15T02:22:34;21.56;47.21
31443;SHT31;18065;55.876;9.830;2024-01-15T02:25:06;21.53;47.24
31443;SHT31;18065;55.876;9.830;2024-01-15T02:27:35;21.55;47.22
31443;SHT31;18065;55.876;9.830;2024-01-15T02:30:06;21.53;47.19
31443;SHT31;18065;55.876;9.830;2024-01-15T02:32:35;21.55;47.13
31443;SHT31;18065;55.876;9.830;2024-01-15T02:35:04;21.53;47.22
31443;SHT31;18065;55.876;9.830;2024-01-15T02:37:33;21.53;47.19
31443;SHT31;18065;55.876;9.830;2024-01-15T02:40:05;21.52;47.19
31443;SHT31;18065;55.876;9.830;2024-01-15T02:42:34;21.52;47.18
31443;SHT31;18065;55.876;9.830;2024-01-15T02:45:04;21.52;47.17
31443;SHT31;18065;55.876;9.830;2024-01-15T02:47:33;21.52;47.16
31443;SHT31;18065;55.876;9.830;2024-01-15T02:50:02;21.52;47.18
31443;SHT31;18065;55.876;9.830;2024-01-15T02:52:31;21.52;47.13
31443;SHT31;18065;55.876;9.830;2024-01-15T02:55:00;21.49;47.18
31443;SHT31;18065;55.876;9.830;2024-01-15T02:57:32;21.52;47.13
31443;SHT31;18065;55.876;9.830;2024-01-15T03:00:01;21.50;47.17
31443;SHT31;18065;55.876;9.830;2024-01-15T03:02:30;21.49;47.13
31443;SHT31;18065;55.876;9.830;2024-01-15T03:04:59;21.52;47.15
31443;SHT31;18065;55.876;9.830;2024-01-15T03:07:29;21.49;47.11
31443;SHT31;18065;55.876;9.830;2024-01-15T03:09:58;21.50;47.09
31443;SHT31;18065;55.876;9.830;2024-01-15T03:12:27;21.46;47.14
31443;SHT31;18065;55.876;9.830;2024-01-15T03:14:59;21.48;47.12
31443;SHT31;18065;55.876;9.830;2024-01-15T03:17:28;21.46;47.20
31443;SHT31;18065;55.876;9.830;2024-01-15T03:19:57;21.49;47.16
31443;SHT31;18065;55.876;9.830;2024-01-15T03:22:26;21.45;47.18
31443;SHT31;18065;55.876;9.830;2024-01-15T03:24:54;21.48;47.16
31443;SHT31;18065;55.876;9.830;2024-01-15T03:27:23;21.43;47.11
31443;SHT31;18065;55.876;9.830;2024-01-15T03:29:52;21.48;47.10
31443;SHT31;18065;55.876;9.830;2024-01-15T03:32:24;21.46;47.03
31443;SHT31;18065;55.876;9.830;2024-01-15T03:34:53;21.46;47.11
31443;SHT31;18065;55.876;9.830;2024-01-15T03:37:22;21.49;47.05
31443;SHT31;18065;55.876;9.830;2024-01-15T03:39:51;21.49;47.04
31443;SHT31;18065;55.876;9.830;2024-01-15T03:42:19;21.46;46.98
31443;SHT31;18065;55.876;9.830;2024-01-15T03:44:48;21.48;46.98
31443;SHT31;18065;55.876;9.830;2024-01-15T03:47:17;21.48;46.90
31443;SHT31;18065;55.876;9.830;2024-01-15T03:49:49;21.45;46.91
31443;SHT31;18065;55.876;9.830;2024-01-15T03:52:18;21.46;46.89
31443;SHT31;18065;55.876;9.830;2024-01-15T03:54:46;21.45;46.87
31443;SHT31;18065;55.876;9.830;2024-01-15T03:57:15;21.49;46.80
31443;SHT31;18065;55.876;9.830;2024-01-15T03:59:44;21.43;46.85
31443;SHT31;18065;55.876;9.830;2024-01-15T04:02:13;21.45;46.84
31443;SHT31;18065;55.876;9.830;2024-01-15T04:04:42;21.48;46.80
31443;SHT31;18065;55.876;9.830;2024-01-15T04:07:14;21.43;46.73
31443;SHT31;18065;55.876;9.830;2024-01-15T04:09:43;21.43;46.74
31443;SHT31;18065;55.876;9.830;2024-01-15T04:12:12;21.42;46.76
31443;SHT31;18065;55.876;9.830;2024-01-15T04:14:41;21.41;46.78
31443;SHT31;18065;55.876;9.830;2024-01-15T04:17:10;21.45;46.72
31443;SHT31;18065;55.876;9.830;2024-01-15T04:19:38;21.45;46.71
31443;SHT31;18065;55.876;9.830;2024-01-15T04:22:09;21.43;46.67
31443;SHT31;18065;55.876;9.830;2024-01-15T04:24:41;21.42;46.64
31443;SHT31;18065;55.876;9.830;2024-01-15T04:27:10;21.43;46.69
31443;SHT31;18065;55.876;9.830;2024-01-15T04:29:38;21.45;46.68
31443;SHT31;18065;55.876;9.830;2024-01-15T04:32:07;21.42;46.66
31443;SHT31;18065;55.876;9.830;2024-01-15T04:34:36;21.42;46.67
31443;SHT31;18065;55.876;9.830;2024-01-15T04:37:05;21.43;46.63
31443;SHT31;18065;55.876;9.830;2024-01-15T04:39:34;21.42;46.64
31443;SHT31;18065;55.876;9.830;2024-01-15T04:42:06;21.42;46.55
31443;SHT31;18065;55.876;9.830;2024-01-15T04:44:34;21.42;46.57
31443;SHT31;18065;55.876;9.830;2024-01-15T04:47:03;21.41;46.57
31443;SHT31;18065;55.876;9.830;2024-01-15T04:49:32;21.41;46.49
31443;SHT31;18065;55.876;9.830;2024-01-15T04:52:01;21.39;46.52
31443;SHT31;18065;55.876;9.830;2024-01-15T04:54:30;21.41;46.48
31443;SHT31;18065;55.876;9.830;2024-01-15T04:56:59;21.42;46.42
31443;SHT31;18065;55.876;9.830;2024-01-15T04:59:31;21.39;46.38
31443;SHT31;18065;55.876;9.830;2024-01-15T05:02:00;21.39;46.43
31443;SHT31;18065;55.876;9.830;2024-01-15T05:04:29;21.39;46.42
31443;SHT31;18065;55.876;9.830;2024-01-15T05:06:58;21.41;46.39
31443;SHT31;18065;55.876;9.830;2024-01-15T05:09:27;21.39;46.32
31443;SHT31;18065;55.876;9.830;2024-01-15T05:11:56;21.38;46.36
31443;SHT31;18065;55.876;9.830;2024-01-15T05:14:25;21.38;46.28
31443;SHT31;18065;55.876;9.830;2024-01-15T05:16:57;21.39;46.29
31443;SHT31;18065;55.876;9.830;2024-01-15T05:19:26;21.41;46.21
31443;SHT31;18065;55.876;9.830;2024-01-15T05:21:55;21.38;46.24
31443;SHT31;18065;55.876;9.830;2024-01-15T05:24:24;21.41;46.21
31443;SHT31;18065;55.876;9.830;2024-01-15T05:26:53;21.36;46.18
31443;SHT31;18065;55.876;9.830;2024-01-15T05:29:21;21.38;46.18
31443;SHT31;18065;55.876;9.830;2024-01-15T05:31:50;21.35;46.15
31443;SHT31;18065;55.876;9.830;2024-01-15T05:34:22;21.38;46.07
31443;SHT31;18065;55.876;9.830;2024-01-15T05:36:51;21.36;46.04
31443;SHT31;18065;55.876;9.830;2024-01-15T05:39:20;21.35;46.07
31443;SHT31;18065;55.876;9.830;2024-01-15T05:41:48;21.36;46.00
31443;SHT31;18065;55.876;9.830;2024-01-15T05:44:18;21.35;45.96
31443;SHT31;18065;55.876;9.830;2024-01-15T05:46:47;21.36;45.95
31443;SHT31;18065;55.876;9.830;2024-01-15T05:49:16;21.36;45.84
31443;SHT31;18065;55.876;9.830;2024-01-15T05:51:47;21.35;45.91
31443;SHT31;18065;55.876;9.830;2024-01-15T05:54:18;21.36;45.77
31443;SHT31;18065;55.876;9.830;2024-01-15T05:56:47;21.35;45.88
31443;SHT31;18065;55.876;9.830;2024-01-15T05:59:16;21.34;46.05
31443;SHT31;18065;55.876;9.830;2024-01-15T06:01:45;22.99;43.59
31443;SHT31;18065;55.876;9.830;2024-01-15T06:04:13;32.91;27.00
31443;SHT31;18065;55.876;9.830;2024-01-15T06:06:42;37.78;21.59
31443;SHT31;18065;55.876;9.830;2024-01-15T06:09:14;39.82;19.72
31443;SHT31;18065;55.876;9.830;2024-01-15T06:11:43;40.61;18.89
31443;SHT31;18065;55.876;9.830;2024-01-15T06:14:12;39.84;19.57
31443;SHT31;18065;55.876;9.830;2024-01-15T06:16:40;38.69;20.58
31443;SHT31;18065;55.876;9.830;2024-01-15T06:19:09;37.54;21.59
31443;SHT31;18065;55.876;9.830;2024-01-15T06:21:38;36.44;22.71
31443;SHT31;18065;55.876;9.830;2024-01-15T06:24:07;35.86;23.34
31443;SHT31;18065;55.876;9.830;2024-01-15T06:26:39;35.09;24.11
31443;SHT31;18065;55.876;9.830;2024-01-15T06:29:08;34.24;25.07
31443;SHT31;18065;55.876;9.830;2024-01-15T06:31:37;33.42;26.03
31443;SHT31;18065;55.876;9.830;2024-01-15T06:34:06;33.07;26.39
31443;SHT31;18065;55.876;9.830;2024-01-15T06:36:35;32.35;27.15
31443;SHT31;18065;55.876;9.830;2024-01-15T06:39:04;31.64;27.93
31443;SHT31;18065;55.876;9.830;2024-01-15T06:41:33;30.93;28.81
31443;SHT31;18065;55.876;9.830;2024-01-15T06:44:09;30.34;29.62
31443;SHT31;18065;55.876;9.830;2024-01-15T06:46:42;29.73;30.41
31443;SHT31;18065;55.876;9.830;2024-01-15T06:49:11;29.16;31.13
31443;SHT31;18065;55.876;9.830;2024-01-15T06:51:40;28.71;31.77
31443;SHT31;18065;55.876;9.830;2024-01-15T06:54:09;28.25;32.37
31443;SHT31;18065;55.876;9.830;2024-01-15T06:56:38;27.81;33.01
31443;SHT31;18065;55.876;9.830;2024-01-15T06:59:09;27.40;33.68
31443;SHT31;18065;55.876;9.830;2024-01-15T07:01:38;27.03;34.21
31443;SHT31;18065;55.876;9.830;2024-01-15T07:04:07;26.66;34.69
31443;SHT31;18065;55.876;9.830;2024-01-15T07:06:36;26.35;35.27
31443;SHT31;18065;55.876;9.830;2024-01-15T07:09:05;26.07;35.66
31443;SHT31;18065;55.876;9.830;2024-01-15T07:11:34;25.77;36.15
31443;SHT31;18065;55.876;9.830;2024-01-15T07:14:04;25.77;36.09
31443;SHT31;18065;55.876;9.830;2024-01-15T07:16:35;25.72;36.18
31443;SHT31;18065;55.876;9.830;2024-01-15T07:19:04;25.53;36.46
31443;SHT31;18065;55.876;9.830;2024-01-15T07:21:33;25.35;36.75
31443;SHT31;18065;55.876;9.830;2024-01-15T07:24:02;25.16;37.06
31443;SHT31;18065;55.876;9.830;2024-01-15T07:26:31;25.00;37.35
31443;SHT31;18065;55.876;9.830;2024-01-15T07:28:59;24.81;37.67
31443;SHT31;18065;55.876;9.830;2024-01-15T07:31:29;24.61;37.94
31443;SHT31;18065;55.876;9.830;2024-01-15T07:34:00;24.50;38.25
31443;SHT31;18065;55.876;9.830;2024-01-15T07:36:29;24.43;38.32
31443;SHT31;18065;55.876;9.830;2024-01-15T07:38:58;24.65;37.80
31443;SHT31;18065;55.876;9.830;2024-01-15T07:41:27;24.71;37.63
31443;SHT31;18065;55.876;9.830;2024-01-15T07:43:56;24.67;37.73
31443;SHT31;18065;55.876;9.830;2024-01-15T07:46:25;24.56;37.82
31443;SHT31;18065;55.876;9.830;2024-01-15T07:48:54;24.46;37.99
31443;SHT31;18065;55.876;9.830;2024-01-15T07:51:26;24.32;38.27
31443;SHT31;18065;55.876;9.830;2024-01-15T07:53:55;24.19;38.49
31443;SHT31;18065;55.876;9.830;2024-01-15T07:56:24;24.03;38.72
31443;SHT31;18065;55.876;9.830;2024-01-15T07:58:53;23.92;38.95
31443;SHT31;18065;55.876;9.830;2024-01-15T08:01:22;23.82;39.09
31443;SHT31;18065;55.876;9.830;2024-01-15T08:03:51;23.69;39.34
31443;SHT31;18065;55.876;9.830;2024-01-15T08:06:20;23.58;39.48
31443;SHT31;18065;55.876;9.830;2024-01-15T08:08:52;23.51;39.62
31443;SHT31;18065;55.876;9.830;2024-01-15T08:11:21;23.41;39.86
31443;SHT31;18065;55.876;9.830;2024-01-15T08:13:50;23.34;39.97
31443;SHT31;18065;55.876;9.830;2024-01-15T08:16:18;23.24;40.09
31443;SHT31;18065;55.876;9.830;2024-01-15T08:18:47;23.17;40.28
31443;SHT31;18065;55.876;9.830;2024-01-15T08:21:16;23.10;40.35
31443;SHT31;18065;55.876;9.830;2024-01-15T08:23:45;23.03;40.49
31443;SHT31;18065;55.876;9.830;2024-01-15T08:26:17;22.97;40.49
31443;SHT31;18065;55.876;9.830;2024-01-15T08:28:47;22.90;40.60
31443;SHT31;18065;55.876;9.830;2024-01-15T08:31:16;22.87;40.74
31443;SHT31;18065;55.876;9.830;2024-01-15T08:33:45;22.79;40.85
31443;SHT31;18065;55.876;9.830;2024-01-15T08:36:14;22.76;40.95
31443;SHT31;18065;55.876;9.830;2024-01-15T08:38:43;22.72;41.04
31443;SHT31;18065;55.876;9.830;2024-01-15T08:41:12;22.65;41.09
31443;SHT31;18065;55.876;9.830;2024-01-15T08:43:44;22.64;41.11
31443;SHT31;18065;55.876;9.830;2024-01-15T08:46:13;22.62;41.22
31443;SHT31;18065;55.876;9.830;2024-01-15T08:48:42;23.00;40.35
31443;SHT31;18065;55.876;9.830;2024-01-15T08:51:11;23.10;40.14
31443;SHT31;18065;55.876;9.830;2024-01-15T08:53:39;23.14;40.03
31443;SHT31;18065;55.876;9.830;2024-01-15T08:56:09;23.14;39.98
31443;SHT31;18065;55.876;9.830;2024-01-15T08:58:38;23.12;40.00
31443;SHT31;18065;55.876;9.830;2024-01-15T09:01:10;23.06;40.09
31443;SHT31;18065;55.876;9.830;2024-01-15T09:03:39;23.03;40.19
31443;SHT31;18065;55.876;9.830;2024-01-15T09:06:08;22.99;40.23
31443;SHT31;18065;55.876;9.830;2024-01-15T09:08:38;22.93;40.29
31443;SHT31;18065;55.876;9.830;2024-01-15T09:11:06;22.87;40.38
31443;SHT31;18065;55.876;9.830;2024-01-15T09:13:35;22.80;40.51
31443;SHT31;18065;55.876;9.830;2024-01-15T09:16:04;22.79;40.66
31443;SHT31;18065;55.876;9.830;2024-01-15T09:18:36;22.73;40.72
31443;SHT31;18065;55.876;9.830;2024-01-15T09:21:05;22.71;40.80
31443;SHT31;18065;55.876;9.830;2024-01-15T09:23:34;22.65;40.89
31443;SHT31;18065;55.876;9.830;2024-01-15T09:26:03;22.61;40.98
31443;SHT31;18065;55.876;9.830;2024-01-15T09:28:31;22.58;41.08
31443;SHT31;18065;55.876;9.830;2024-01-15T09:31:00;22.54;41.06
31443;SHT31;18065;55.876;9.830;2024-01-15T09:33:29;22.49;41.16
31443;SHT31;18065;55.876;9.830;2024-01-15T09:36:01;22.47;41.17
31443;SHT31;18065;55.876;9.830;2024-01-15T09:38:31;22.44;41.28
31443;SHT31;18065;55.876;9.830;2024-01-15T09:41:00;22.44;41.29
31443;SHT31;18065;55.876;9.830;2024-01-15T09:43:29;22.45;41.29
31443;SHT31;18065;55.876;9.830;2024-01-15T09:45:59;22.39;41.36
31443;SHT31;18065;55.876;9.830;2024-01-15T09:48:28;22.41;41.41
31443;SHT31;18065;55.876;9.830;2024-01-15T09:51:02;22.42;41.37
31443;SHT31;18065;55.876;9.830;2024-01-15T09:53:31;22.41;41.35
31443;SHT31;18065;55.876;9.830;2024-01-15T09:56:00;22.39;41.42
31443;SHT31;18065;55.876;9.830;2024-01-15T09:58:30;22.38;41.37
31443;SHT31;18065;55.876;9.830;2024-01-15T10:00:59;22.39;41.43
31443;SHT31;18065;55.876;9.830;2024-01-15T10:03:29;22.38;41.44
31443;SHT31;18065;55.876;9.830;2024-01-15T10:06:02;22.38;41.45
31443;SHT31;18065;55.876;9.830;2024-01-15T10:08:32;22.35;41.51
31443;SHT31;18065;55.876;9.830;2024-01-15T10:11:01;22.39;41.49
31443;SHT31;18065;55.876;9.830;2024-01-15T10:13:30;22.38;41.45
31443;SHT31;18065;55.876;9.830;2024-01-15T10:16:00;22.37;41.44
31443;SHT31;18065;55.876;9.830;2024-01-15T10:18:30;22.37;41.46
31443;SHT31;18065;55.876;9.830;2024-01-15T10:21:02;22.37;41.42
31443;SHT31;18065;55.876;9.830;2024-01-15T10:23:32;22.35;41.52
31443;SHT31;18065;55.876;9.830;2024-01-15T10:26:01;22.35;41.54
31443;SHT31;18065;55.876;9.830;2024-01-15T10:28:31;22.37;41.47
31443;SHT31;18065;55.876;9.830;2024-01-15T10:31:01;22.34;41.54
31443;SHT31;18065;55.876;9.830;2024-01-15T10:33:30;22.37;41.51
31443;SHT31;18065;55.876;9.830;2024-01-15T10:36:03;22.35;41.53
31443;SHT31;18065;55.876;9.830;2024-01-15T10:38:37;22.31;41.57
31443;SHT31;18065;55.876;9.830;2024-01-15T10:41:06;22.32;41.43
31443;SHT31;18065;55.876;9.830;2024-01-15T10:43:35;22.31;41.49
31443;SHT31;18065;55.876;9.830;2024-01-15T10:46:06;22.32;41.48
31443;SHT31;18065;55.876;9.830;2024-01-15T10:48:36;22.31;41.43
31443;SHT31;18065;55.876;9.830;2024-01-15T10:51:07;22.31;41.52
31443;SHT31;18065;55.876;9.830;2024-01-15T10:53:41;22.31;41.48
31443;SHT31;18065;55.876;9.830;2024-01-15T10:56:10;22.31;41.49
31443;SHT31;18065;55.876;9.830;2024-01-15T10:58:41;22.31;41.50
31443;SHT31;18065;55.876;9.830;2024-01-15T11:01:12;22.49;41.27
31443;SHT31;18065;55.876;9.830;2024-01-15T11:03:42;22.77;40.58
31443;SHT31;18065;55.876;9.830;2024-01-15T11:06:19;22.89;40.38
31443;SHT31;18065;55.876;9.830;2024-01-15T11:08:49;22.90;40.27
31443;SHT31;18065;55.876;9.830;2024-01-15T11:11:18;22.92;40.21
31443;SHT31;18065;55.876;9.830;2024-01-15T11:13:47;22.90;40.30
31443;SHT31;18065;55.876;9.830;2024-01-15T11:16:18;22.89;40.33
31443;SHT31;18065;55.876;9.830;2024-01-15T11:19:02;22.86;40.37
31443;SHT31;18065;55.876;9.830;2024-01-15T11:21:42;22.82;40.42
31443;SHT31;18065;55.876;9.830;2024-01-15T11:24:35;22.76;40.51
31443;SHT31;18065;55.876;9.830;2024-01-15T11:27:05;22.75;40.66
31443;SHT31;18065;55.876;9.830;2024-01-15T11:29:36;22.71;40.74
31443;SHT31;18065;55.876;9.830;2024-01-15T11:32:06;22.65;40.80
31443;SHT31;18065;55.876;9.830;2024-01-15T11:34:57;22.59;40.89
31443;SHT31;18065;55.876;9.830;2024-01-15T11:40:36;22.52;41.08
31443;SHT31;18065;55.876;9.830;2024-01-15T11:43:08;22.51;41.17
31443;SHT31;18065;55.876;9.830;2024-01-15T11:45:39;22.48;41.22
31443;SHT31;18065;55.876;9.830;2024-01-15T11:48:14;22.42;41.25
31443;SHT31;18065;55.876;9.830;2024-01-15T11:50:44;22.45;41.36
31443;SHT31;18065;55.876;9.830;2024-01-15T11:53:27;22.37;41.44
31443;SHT31;18065;55.876;9.830;2024-01-15T11:55:58;22.34;41.49
31443;SHT31;18065;55.876;9.830;2024-01-15T11:58:28;22.32;41.50
31443;SHT31;18065;55.876;9.830;2024-01-15T12:00:57;22.32;41.53
31443;SHT31;18065;55.876;9.830;2024-01-15T12:03:26;22.27;41.56
31443;SHT31;18065;55.876;9.830;2024-01-15T12:05:54;22.27;41.57
31443;SHT31;18065;55.876;9.830;2024-01-15T12:08:28;22.22;41.60
31443;SHT31;18065;55.876;9.830;2024-01-15T12:10:57;22.21;41.67
31443;SHT31;18065;55.876;9.830;2024-01-15T12:13:27;22.20;41.69
31443;SHT31;18065;55.876;9.830;2024-01-15T12:15:56;22.18;41.77
31443;SHT31;18065;55.876;9.830;2024-01-15T12:18:26;22.14;41.79
31443;SHT31;18065;55.876;9.830;2024-01-15T12:20:55;22.16;41.82
31443;SHT31;18065;55.876;9.830;2024-01-15T12:23:24;22.13;41.89
31443;SHT31;18065;55.876;9.830;2024-01-15T12:25:55;22.11;41.94
31443;SHT31;18065;55.876;9.830;2024-01-15T12:28:27;22.10;41.93
31443;SHT31;18065;55.876;9.830;2024-01-15T12:30:56;22.06;41.96
31443;SHT31;18065;55.876;9.830;2024-01-15T12:33:26;22.06;42.04
31443;SHT31;18065;55.876;9.830;2024-01-15T12:35:54;22.03;42.08
31443;SHT31;18065;55.876;9.830;2024-01-15T12:38:23;22.06;42.10
31443;SHT31;18065;55.876;9.830;2024-01-15T12:40:55;22.04;42.09
31443;SHT31;18065;55.876;9.830;2024-01-15T12:43:24;21.98;42.21
31443;SHT31;18065;55.876;9.830;2024-01-15T12:45:53;22.01;42.22
31443;SHT31;18065;55.876;9.830;2024-01-15T12:48:22;22.00;42.22
31443;SHT31;18065;55.876;9.830;2024-01-15T12:50:52;22.00;42.29
31443;SHT31;18065;55.876;9.830;2024-01-15T12:53:21;21.97;42.26
31443;SHT31;18065;55.876;9.830;2024-01-15T12:55:50;21.97;42.29
31443;SHT31;18065;55.876;9.830;2024-01-15T12:58:21;21.94;42.29
31443;SHT31;18065;55.876;9.830;2024-01-15T13:00:50;21.94;42.30
31443;SHT31;18065;55.876;9.830;2024-01-15T13:03:19;21.92;42.39
31443;SHT31;18065;55.876;9.830;2024-01-15T13:05:48;21.92;42.37
31443;SHT31;18065;55.876;9.830;2024-01-15T13:08:18;21.87;42.43
31443;SHT31;18065;55.876;9.830;2024-01-15T13:10:49;21.92;42.46
31443;SHT31;18065;55.876;9.830;2024-01-15T13:13:21;21.87;42.48
31443;SHT31;18065;55.876;9.830;2024-01-15T13:15:49;21.86;42.49
31443;SHT31;18065;55.876;9.830;2024-01-15T13:18:18;21.84;42.53
31443;SHT31;18065;55.876;9.830;2024-01-15T13:20:47;21.84;42.54
31443;SHT31;18065;55.876;9.830;2024-01-15T13:23:16;21.84;42.57
31443;SHT31;18065;55.876;9.830;2024-01-15T13:25:46;21.83;42.58
31443;SHT31;18065;55.876;9.830;2024-01-15T13:28:15;21.81;42.59
31443;SHT31;18065;55.876;9.830;2024-01-15T13:30:47;21.81;42.54
31443;SHT31;18065;55.876;9.830;2024-01-15T13:33:16;21.80;42.58
31443;SHT31;18065;55.876;9.830;2024-01-15T13:35:45;21.80;42.59
31443;SHT31;18065;55.876;9.830;2024-01-15T13:38:15;21.79;42.64
31443;SHT31;18065;55.876;9.830;2024-01-15T13:40:44;21.76;42.66
31443;SHT31;18065;55.876;9.830;2024-01-15T13:43:13;21.77;42.62
31443;SHT31;18065;55.876;9.830;2024-01-15T13:45:46;21.77;42.65
31443;SHT31;18065;55.876;9.830;2024-01-15T13:48:16;21.77;42.71
31443;SHT31;18065;55.876;9.830;2024-01-15T13:50:45;21.76;42.69
31443;SHT31;18065;55.876;9.830;2024-01-15T13:53:16;21.74;42.68
31443;SHT31;18065;55.876;9.830;2024-01-15T13:55:45;21.74;42.75
31443;SHT31;18065;55.876;9.830;2024-01-15T13:58:14;21.73;42.75
31443;SHT31;18065;55.876;9.830;2024-01-15T14:00:47;21.74;42.73
31443;SHT31;18065;55.876;9.830;2024-01-15T14:03:15;21.70;42.80
31443;SHT31;18065;55.876;9.830;2024-01-15T14:05:44;21.69;42.79
31443;SHT31;18065;55.876;9.830;2024-01-15T14:08:13;21.71;42.81
31443;SHT31;18065;55.876;9.830;2024-01-15T14:10:42;21.70;42.81
31443;SHT31;18065;55.876;9.830;2024-01-15T14:13:11;21.67;42.82
31443;SHT31;18065;55.876;9.830;2024-01-15T14:15:40;21.69;42.86
31443;SHT31;18065;55.876;9.830;2024-01-15T14:18:12;21.67;42.90
31443;SHT31;18065;55.876;9.830;2024-01-15T14:20:41;21.65;42.90
31443;SHT31;18065;55.876;9.830;2024-01-15T14:23:09;21.62;42.92
31443;SHT31;18065;55.876;9.830;2024-01-15T14:25:39;21.62;42.91
31443;SHT31;18065;55.876;9.830;2024-01-15T14:28:08;21.62;42.91
31443;SHT31;18065;55.876;9.830;2024-01-15T14:30:37;21.62;42.92
31443;SHT31;18065;55.876;9.830;2024-01-15T14:33:06;21.62;42.94
31443;SHT31;18065;55.876;9.830;2024-01-15T14:35:37;21.60;42.94
31443;SHT31;18065;55.876;9.830;2024-01-15T14:38:06;21.59;42.99
31443;SHT31;18065;55.876;9.830;2024-01-15T14:40:35;21.58;42.96
31443;SHT31;18065;55.876;9.830;2024-01-15T14:43:04;21.59;43.01
31443;SHT31;18065;55.876;9.830;2024-01-15T14:45:34;21.56;43.01
31443;SHT31;18065;55.876;9.830;2024-01-15T14:48:03;21.56;43.03
31443;SHT31;18065;55.876;9.830;2024-01-15T14:50:32;21.56;43.02
31443;SHT31;18065;55.876;9.830;2024-01-15T14:53:04;21.58;42.99
31443;SHT31;18065;55.876;9.830;2024-01-15T14:55:32;21.53;43.05
31443;SHT31;18065;55.876;9.830;2024-01-15T14:58:01;21.55;43.06
31443;SHT31;18065;55.876;9.830;2024-01-15T15:00:31;21.53;43.04
31443;SHT31;18065;55.876;9.830;2024-01-15T15:02:59;21.53;43.06
31443;SHT31;18065;55.876;9.830;2024-01-15T15:05:28;21.52;43.06
31443;SHT31;18065;55.876;9.830;2024-01-15T15:07:58;21.52;43.09
31443;SHT31;18065;55.876;9.830;2024-01-15T15:10:31;21.49;43.09
31443;SHT31;18065;55.876;9.830;2024-01-15T15:12:59;21.50;43.11
31443;SHT31;18065;55.876;9.830;2024-01-15T15:15:28;21.50;43.13
31443;SHT31;18065;55.876;9.830;2024-01-15T15:17:58;21.49;43.16
31443;SHT31;18065;55.876;9.830;2024-01-15T15:20:27;21.49;43.13
31443;SHT31;18065;55.876;9.830;2024-01-15T15:22:56;21.49;43.16
31443;SHT31;18065;55.876;9.830;2024-01-15T15:25:25;21.48;43.15
31443;SHT31;18065;55.876;9.830;2024-01-15T15:27:57;21.48;43.09
31443;SHT31;18065;55.876;9.830;2024-01-15T15:30:26;21.46;43.10
31443;SHT31;18065;55.876;9.830;2024-01-15T15:32:55;21.46;43.16
31443;SHT31;18065;55.876;9.830;2024-01-15T15:35:24;21.43;43.17
31443;SHT31;18065;55.876;9.830;2024-01-15T15:37:53;21.42;43.15
31443;SHT31;18065;55.876;9.830;2024-01-15T15:40:21;21.43;43.17
31443;SHT31;18065;55.876;9.830;2024-01-15T15:42:50;21.42;43.19
31443;SHT31;18065;55.876;9.830;2024-01-15T15:45:22;21.41;43.16
31443;SHT31;18065;55.876;9.830;2024-01-15T15:47:51;21.41;43.19